createdAt,value
2023-02-09T00:02:14.132Z,1.50
2023-02-09T00:04:40.663Z,5.78
2023-02-09T00:07:07.164Z,4.63
2023-02-09T00:09:33.690Z,3.95
2023-02-09T00:12:18.409Z,3.95
2023-02-09T00:14:44.910Z,3.05
2023-02-09T00:17:11.547Z,3.17
2023-02-09T00:19:38.187Z,3.00
2023-02-09T00:24:12.830Z,1.38
2023-02-09T00:26:40.673Z,1.65
2023-02-09T00:29:07.940Z,1.70
2023-02-09T00:31:35.134Z,1.58
2023-02-09T00:34:02.251Z,1.10
2023-02-09T00:36:29.187Z,1.42
2023-02-09T00:38:56.308Z,1.23
2023-02-09T00:41:43.257Z,1.52
2023-02-09T00:44:11.561Z,1.33
2023-02-09T00:47:55.538Z,2.90
2023-02-09T00:50:22.098Z,4.60
2023-02-09T00:52:48.665Z,5.22
2023-02-09T00:55:15.897Z,4.65
2023-02-09T00:57:42.376Z,6.25
2023-02-09T01:00:09.965Z,8.30
2023-02-09T01:02:36.646Z,6.03
2023-02-09T01:05:03.598Z,4.75
2023-02-09T01:07:30.121Z,3.95
2023-02-09T01:09:56.690Z,4.47
2023-02-09T01:12:23.266Z,3.33
2023-02-09T01:14:49.768Z,4.93
2023-02-09T01:17:16.273Z,17.67
2023-02-09T01:19:42.819Z,16.48
2023-02-09T01:22:09.543Z,12.82
2023-02-09T01:24:36.203Z,8.60
2023-02-09T01:27:02.870Z,7.30
2023-02-09T01:29:29.338Z,6.10
2023-02-09T01:31:55.914Z,6.35
2023-02-09T01:34:22.745Z,6.13
2023-02-09T01:36:49.577Z,7.28
2023-02-09T01:39:16.107Z,10.23
2023-02-09T01:41:43.552Z,24.20
2023-02-09T01:44:12.737Z,28.77
2023-02-09T01:46:39.840Z,32.35
2023-02-09T01:49:15.920Z,34.85
2023-02-09T01:52:00.952Z,28.25
2023-02-09T01:54:39.110Z,15.05
2023-02-09T01:57:13.264Z,9.15
2023-02-09T01:59:42.749Z,8.13
2023-02-09T02:02:10.727Z,10.50
2023-02-09T02:04:38.935Z,9.30
2023-02-09T02:07:16.489Z,8.45
2023-02-09T02:09:43.306Z,8.45
2023-02-09T02:12:10.052Z,8.40
2023-02-09T02:14:38.570Z,8.25
2023-02-09T02:17:31.365Z,7.80
2023-02-09T02:20:28.695Z,6.78
2023-02-09T02:23:10.379Z,6.82
2023-02-09T02:25:55.535Z,7.68
2023-02-09T02:28:39.884Z,7.35
2023-02-09T02:31:53.086Z,8.40
2023-02-09T02:34:26.411Z,9.10
2023-02-09T02:37:18.361Z,8.38
2023-02-09T02:39:56.343Z,9.52
2023-02-09T02:42:51.550Z,10.02
2023-02-09T02:45:38.413Z,9.93
2023-02-09T02:48:23.146Z,9.02
2023-02-09T02:50:59.967Z,8.82
2023-02-09T02:53:31.155Z,9.30
2023-02-09T02:56:05.535Z,9.80
2023-02-09T02:58:34.311Z,10.38
2023-02-09T03:01:03.102Z,8.80
2023-02-09T03:03:35.407Z,8.85
2023-02-09T03:06:05.380Z,8.82
2023-02-09T03:11:11.995Z,7.68
2023-02-09T03:13:58.324Z,7.65
2023-02-09T03:16:36.840Z,10.68
2023-02-09T03:19:34.273Z,8.23
2023-02-09T03:22:06.502Z,10.30
2023-02-09T03:24:53.410Z,10.00
2023-02-09T03:27:25.002Z,10.05
2023-02-09T03:29:56.308Z,8.68
2023-02-09T03:32:23.809Z,8.65
2023-02-09T03:34:52.617Z,8.43
2023-02-09T03:37:19.121Z,10.07
2023-02-09T03:39:45.648Z,10.05
2023-02-09T03:42:12.122Z,8.38
2023-02-09T03:44:38.877Z,9.52
2023-02-09T03:47:08.784Z,10.15
2023-02-09T03:49:39.417Z,11.75
2023-02-09T03:52:11.735Z,13.55
2023-02-09T03:54:38.673Z,13.18
2023-02-09T03:57:05.798Z,12.23
2023-02-09T03:59:35.508Z,9.80
2023-02-09T04:02:03.435Z,8.32
2023-02-09T04:04:30.368Z,7.90
2023-02-09T04:06:57.349Z,7.22
2023-02-09T04:09:24.560Z,7.47
2023-02-09T04:11:51.558Z,7.95
2023-02-09T04:14:18.768Z,8.13
2023-02-09T04:16:45.568Z,8.00
2023-02-09T04:19:12.402Z,7.13
2023-02-09T04:21:39.461Z,7.53
2023-02-09T04:24:06.939Z,7.32
2023-02-09T04:26:34.308Z,7.18
2023-02-09T04:29:00.909Z,6.47
2023-02-09T04:31:27.510Z,6.57
2023-02-09T04:33:54.115Z,7.45
2023-02-09T04:36:23.219Z,7.75
2023-02-09T04:38:50.103Z,7.95
2023-02-09T04:41:16.603Z,7.25
2023-02-09T04:43:43.192Z,7.78
2023-02-09T04:46:17.745Z,7.47
2023-02-09T04:48:44.868Z,7.70
2023-02-09T04:51:11.367Z,7.90
2023-02-09T04:53:38.384Z,7.45
2023-02-09T04:56:05.373Z,7.78
2023-02-09T04:58:50.272Z,7.65
2023-02-09T05:01:22.685Z,8.35
2023-02-09T05:03:49.362Z,7.15
2023-02-09T05:06:16.539Z,7.93
2023-02-09T05:08:44.294Z,7.15
2023-02-09T05:11:10.987Z,8.02
2023-02-09T05:13:37.557Z,7.82
2023-02-09T05:16:08.890Z,8.35
2023-02-09T05:18:36.485Z,7.80
2023-02-09T05:21:03.546Z,6.60
2023-02-09T05:23:30.432Z,6.35
2023-02-09T05:25:56.918Z,6.88
2023-02-09T05:28:24.452Z,6.75
2023-02-09T05:30:53.796Z,6.65
2023-02-09T05:33:21.858Z,6.32
2023-02-09T05:35:48.558Z,7.40
2023-02-09T05:38:15.062Z,7.43
2023-02-09T05:40:42.748Z,7.15
2023-02-09T05:43:11.429Z,8.65
2023-02-09T05:45:38.035Z,7.35
2023-02-09T05:48:04.824Z,7.57
2023-02-09T05:50:31.377Z,6.82
2023-02-09T05:53:00.697Z,7.40
2023-02-09T05:55:27.479Z,7.80
2023-02-09T05:57:53.995Z,8.40
2023-02-09T06:00:20.818Z,7.35
2023-02-09T06:02:47.363Z,7.25
2023-02-09T06:05:14.234Z,7.10
2023-02-09T06:07:40.806Z,7.60
2023-02-09T06:10:07.647Z,7.97
2023-02-09T06:12:34.118Z,7.40
2023-02-09T06:15:00.566Z,7.20
2023-02-09T06:17:27.133Z,8.20
2023-02-09T06:19:53.601Z,8.07
2023-02-09T06:22:20.158Z,7.15
2023-02-09T06:24:46.659Z,7.28
2023-02-09T06:27:13.614Z,7.72
2023-02-09T06:29:40.588Z,8.13
2023-02-09T06:32:07.189Z,7.95
2023-02-09T06:34:33.807Z,9.07
2023-02-09T06:37:00.302Z,8.75
2023-02-09T06:39:26.910Z,10.00
2023-02-09T06:41:53.451Z,11.05
2023-02-09T06:44:20.043Z,8.27
2023-02-09T06:46:46.814Z,8.23
2023-02-09T06:49:13.290Z,8.27
2023-02-09T06:51:40.038Z,7.20
2023-02-09T06:54:06.731Z,8.07
2023-02-09T06:56:33.220Z,9.43
2023-02-09T06:58:59.668Z,8.48
2023-02-09T07:01:26.288Z,8.60
2023-02-09T07:03:52.798Z,7.93
2023-02-09T07:06:21.200Z,7.95
2023-02-09T07:08:49.453Z,8.98
2023-02-09T07:11:17.868Z,13.60
2023-02-09T07:13:45.772Z,15.30
2023-02-09T07:16:13.117Z,14.60
2023-02-09T07:18:39.806Z,15.63
2023-02-09T07:21:12.260Z,13.75
2023-02-09T07:23:39.216Z,15.52
2023-02-09T07:26:10.616Z,14.38
2023-02-09T07:28:37.540Z,12.30
2023-02-09T07:31:07.261Z,11.93
2023-02-09T07:33:34.672Z,11.55
2023-02-09T07:36:04.768Z,11.55
2023-02-09T07:38:31.460Z,11.50
2023-02-09T07:41:03.828Z,11.57
2023-02-09T07:43:30.827Z,10.18
2023-02-09T07:46:01.628Z,9.23
2023-02-09T07:48:28.634Z,7.60
2023-02-09T07:50:55.229Z,8.07
2023-02-09T07:53:22.038Z,7.70
2023-02-09T07:55:48.676Z,7.57
2023-02-09T07:58:18.181Z,8.07
2023-02-09T08:00:46.173Z,6.78
2023-02-09T08:03:14.853Z,7.15
2023-02-09T08:06:10.671Z,7.05
2023-02-09T08:08:37.163Z,7.70
2023-02-09T08:11:05.466Z,7.32
2023-02-09T08:13:38.059Z,8.75
2023-02-09T08:16:08.069Z,7.45
2023-02-09T08:21:07.228Z,8.40
2023-02-09T08:23:35.512Z,8.02
2023-02-09T08:26:07.884Z,7.43
2023-02-09T08:28:43.527Z,8.57
2023-02-09T08:31:16.305Z,9.15
2023-02-09T08:33:44.549Z,7.57
2023-02-09T08:36:12.401Z,6.60
2023-02-09T08:38:39.213Z,7.20
2023-02-09T08:41:07.532Z,6.88
2023-02-09T08:43:34.355Z,6.97
2023-02-09T08:46:06.756Z,6.28
2023-02-09T08:48:35.905Z,6.43
2023-02-09T08:51:03.197Z,5.97
2023-02-09T08:53:29.813Z,6.32
2023-02-09T08:55:56.721Z,7.40
2023-02-09T08:58:24.812Z,6.20
2023-02-09T09:00:53.378Z,6.45
2023-02-09T09:03:19.976Z,6.78
2023-02-09T09:05:46.837Z,4.88
2023-02-09T09:08:13.521Z,6.97
2023-02-09T09:10:39.991Z,4.60
2023-02-09T09:13:06.469Z,4.38
2023-02-09T09:15:35.113Z,4.90
2023-02-09T09:18:01.618Z,5.55
2023-02-09T09:20:28.385Z,5.15
2023-02-09T09:22:59.318Z,5.00
2023-02-09T09:25:25.851Z,4.82
2023-02-09T09:27:52.451Z,5.50
2023-02-09T09:30:19.143Z,5.07
2023-02-09T09:32:45.722Z,4.53
2023-02-09T09:35:12.349Z,4.55
2023-02-09T09:37:38.879Z,4.43
2023-02-09T09:40:05.626Z,4.18
2023-02-09T09:42:38.236Z,3.95
2023-02-09T09:45:07.474Z,4.13
2023-02-09T09:47:39.396Z,4.63
2023-02-09T09:50:14.450Z,4.20
2023-02-09T09:52:45.287Z,4.20
2023-02-09T09:55:22.140Z,3.70
2023-02-09T09:57:50.450Z,4.22
2023-02-09T10:00:25.781Z,5.03
2023-02-09T10:02:52.576Z,4.05
2023-02-09T10:05:26.102Z,3.63
2023-02-09T10:08:07.958Z,4.38
2023-02-09T10:10:39.852Z,4.18
2023-02-09T10:13:44.416Z,4.18
2023-02-09T10:16:27.241Z,3.90
2023-02-09T10:18:59.533Z,4.00
2023-02-09T10:21:29.979Z,4.20
2023-02-09T10:24:02.661Z,3.83
2023-02-09T10:26:37.141Z,3.92
2023-02-09T10:29:13.256Z,4.40
2023-02-09T10:31:47.295Z,5.57
2023-02-09T10:34:17.122Z,5.57
2023-02-09T10:39:33.047Z,4.18
2023-02-09T10:42:19.795Z,3.58
2023-02-09T10:44:51.780Z,3.97
2023-02-09T10:47:21.002Z,3.83
2023-02-09T10:50:17.101Z,4.25
2023-02-09T10:52:58.517Z,3.65
2023-02-09T10:55:35.562Z,4.15
2023-02-09T10:58:30.203Z,3.70
2023-02-09T11:01:01.761Z,4.00
2023-02-09T11:03:29.169Z,4.72
2023-02-09T11:06:19.460Z,3.63
2023-02-09T11:08:47.694Z,4.18
2023-02-09T11:11:36.423Z,3.72
2023-02-09T11:14:04.045Z,3.78
2023-02-09T11:17:02.675Z,3.53
2023-02-09T11:19:56.872Z,4.10
2023-02-09T11:22:59.563Z,3.95
2023-02-09T11:25:30.366Z,3.83
2023-02-09T11:28:14.885Z,3.47
2023-02-09T11:30:47.450Z,3.65
2023-02-09T11:33:25.861Z,3.45
2023-02-09T11:36:10.806Z,3.53
2023-02-09T11:38:49.071Z,3.10
2023-02-09T11:42:02.577Z,3.73
2023-02-09T11:44:39.612Z,3.10
2023-02-09T11:47:11.087Z,2.97
2023-02-09T11:49:45.498Z,3.05
2023-02-09T11:52:18.382Z,3.22
2023-02-09T11:54:50.336Z,2.88
2023-02-09T11:57:47.456Z,2.78
2023-02-09T12:00:24.438Z,3.35
2023-02-09T12:03:09.444Z,2.53
2023-02-09T12:05:37.451Z,3.00
2023-02-09T12:08:41.035Z,2.70
2023-02-09T12:11:16.032Z,3.42
2023-02-09T12:13:55.283Z,3.28
2023-02-09T12:18:54.905Z,3.10
2023-02-09T12:21:32.466Z,2.80
2023-02-09T12:24:00.902Z,3.80
2023-02-09T12:26:44.224Z,2.97
2023-02-09T12:29:25.654Z,3.95
2023-02-09T12:32:04.119Z,3.42
2023-02-09T12:34:42.983Z,4.25
2023-02-09T12:37:16.895Z,3.20
2023-02-09T12:40:12.552Z,3.25
2023-02-09T12:43:09.866Z,3.58
2023-02-09T12:45:36.372Z,4.05
2023-02-09T12:48:08.715Z,3.30
2023-02-09T12:50:46.086Z,3.85
2023-02-09T12:53:21.666Z,3.97
2023-02-09T12:56:02.466Z,3.25
2023-02-09T12:58:45.089Z,3.70
2023-02-09T13:01:14.335Z,3.90
2023-02-09T13:03:56.890Z,3.50
2023-02-09T13:06:32.573Z,4.00
2023-02-09T13:09:03.108Z,4.35
2023-02-09T13:11:40.425Z,4.65
2023-02-09T13:14:11.613Z,4.85
2023-02-09T13:17:08.816Z,3.63
2023-02-09T13:19:50.779Z,4.53
2023-02-09T13:22:32.405Z,5.35
2023-02-09T13:25:01.913Z,4.18
2023-02-09T13:27:29.460Z,4.60
2023-02-09T13:29:58.488Z,4.65
2023-02-09T13:32:27.690Z,4.90
2023-02-09T13:35:16.651Z,3.87
2023-02-09T13:37:48.840Z,3.85
2023-02-09T13:40:18.440Z,4.45
2023-02-09T13:42:54.890Z,4.97
2023-02-09T13:45:24.003Z,4.47
2023-02-09T13:47:50.942Z,4.43
2023-02-09T13:50:23.092Z,5.28
2023-02-09T13:52:50.778Z,4.50
2023-02-09T13:55:27.052Z,4.10
2023-02-09T13:58:02.976Z,4.22
2023-02-09T14:00:47.234Z,5.00
2023-02-09T14:03:27.228Z,4.60
2023-02-09T14:06:11.676Z,4.82
2023-02-09T14:08:40.426Z,4.13
2023-02-09T14:11:36.514Z,4.90
2023-02-09T14:14:12.739Z,4.60
2023-02-09T14:16:52.571Z,4.47
2023-02-09T14:19:24.442Z,4.75
2023-02-09T14:21:51.043Z,4.30
2023-02-09T14:24:28.854Z,4.28
2023-02-09T14:27:16.515Z,3.85
2023-02-09T14:29:47.219Z,4.60
2023-02-09T14:32:33.233Z,3.72
2023-02-09T14:35:20.524Z,3.65
2023-02-09T14:37:48.544Z,4.25
2023-02-09T14:40:29.833Z,4.25
2023-02-09T14:42:58.010Z,4.97
2023-02-09T14:45:27.631Z,4.95
2023-02-09T14:47:54.131Z,3.90
2023-02-09T14:50:23.566Z,3.33
2023-02-09T14:52:54.122Z,4.30
2023-02-09T14:55:25.437Z,4.72
2023-02-09T14:57:51.943Z,5.53
2023-02-09T15:00:20.255Z,3.83
2023-02-09T15:02:48.444Z,4.30
2023-02-09T15:05:15.467Z,4.70
2023-02-09T15:07:45.392Z,5.10
2023-02-09T15:10:26.991Z,4.90
2023-02-09T15:12:54.763Z,4.57
2023-02-09T15:15:22.606Z,4.43
2023-02-09T15:17:49.171Z,4.20
2023-02-09T15:20:17.744Z,5.47
2023-02-09T15:22:44.447Z,4.57
2023-02-09T15:25:14.118Z,4.90
2023-02-09T15:27:51.306Z,4.00
2023-02-09T15:30:27.308Z,3.90
2023-02-09T15:32:53.905Z,4.70
2023-02-09T15:35:23.209Z,5.15
2023-02-09T15:37:53.290Z,4.97
2023-02-09T15:40:42.134Z,4.95
2023-02-09T15:43:38.687Z,4.03
2023-02-09T15:46:25.058Z,4.93
2023-02-09T15:48:51.663Z,4.63
2023-02-09T15:51:18.710Z,5.03
2023-02-09T15:53:46.490Z,4.55
2023-02-09T15:56:14.512Z,5.00
2023-02-09T15:58:44.876Z,5.70
2023-02-09T16:01:14.236Z,8.27
2023-02-09T16:03:40.766Z,15.50
2023-02-09T16:06:20.291Z,13.85
2023-02-09T16:08:47.955Z,12.95
2023-02-09T16:11:27.340Z,7.82
2023-02-09T16:13:54.385Z,5.18
2023-02-09T16:16:21.377Z,4.55
2023-02-09T16:18:47.899Z,4.85
2023-02-09T16:21:26.542Z,6.25
2023-02-09T16:23:55.665Z,3.78
2023-02-09T16:26:24.308Z,4.78
2023-02-09T16:28:54.143Z,4.65
2023-02-09T16:31:21.875Z,4.07
2023-02-09T16:33:50.191Z,4.35
2023-02-09T16:36:23.609Z,5.30
2023-02-09T16:38:50.186Z,4.85
2023-02-09T16:41:38.567Z,5.57
2023-02-09T16:44:16.484Z,4.28
2023-02-09T16:46:44.198Z,5.55
2023-02-09T16:49:37.703Z,5.63
2023-02-09T16:52:19.529Z,6.35
2023-02-09T16:54:48.780Z,6.60
2023-02-09T16:57:18.552Z,6.87
2023-02-09T16:59:45.807Z,6.40
2023-02-09T17:02:47.144Z,28.55
2023-02-09T17:05:16.521Z,32.97
2023-02-09T17:07:53.870Z,13.35
2023-02-09T17:10:24.282Z,11.38
2023-02-09T17:12:53.227Z,12.43
2023-02-09T17:15:29.377Z,11.30
2023-02-09T17:18:02.352Z,10.52
2023-02-09T17:20:38.225Z,13.13
2023-02-09T17:23:05.062Z,13.13
2023-02-09T17:25:31.652Z,12.60
2023-02-09T17:27:58.264Z,13.38
2023-02-09T17:30:24.757Z,11.38
2023-02-09T17:33:01.391Z,11.65
2023-02-09T17:35:53.006Z,10.27
2023-02-09T17:38:22.190Z,9.38
2023-02-09T17:40:50.332Z,8.82
2023-02-09T17:43:17.392Z,9.35
2023-02-09T17:45:49.045Z,10.20
2023-02-09T17:48:16.736Z,8.98
2023-02-09T17:50:48.283Z,8.75
2023-02-09T17:53:20.940Z,8.65
2023-02-09T17:55:48.454Z,9.57
2023-02-09T17:58:15.846Z,8.95
2023-02-09T18:00:43.739Z,8.88
2023-02-09T18:03:14.989Z,9.55
2023-02-09T18:05:41.845Z,9.88
2023-02-09T18:08:08.833Z,10.00
2023-02-09T18:10:36.306Z,11.10
2023-02-09T18:13:02.889Z,11.50
2023-02-09T18:15:33.649Z,19.13
2023-02-09T18:18:00.163Z,14.77
2023-02-09T18:20:30.433Z,12.82
2023-02-09T18:22:57.695Z,12.63
2023-02-09T18:25:37.802Z,12.38
2023-02-09T18:30:36.247Z,12.65
2023-02-09T18:33:04.753Z,12.23
2023-02-09T18:35:35.331Z,11.18
2023-02-09T18:38:05.553Z,9.93
2023-02-09T18:40:32.585Z,9.48
2023-02-09T18:43:00.431Z,9.05
2023-02-09T18:45:27.720Z,9.57
2023-02-09T18:47:54.286Z,10.13
2023-02-09T18:50:27.514Z,9.43
2023-02-09T18:52:56.511Z,9.35
2023-02-09T18:55:24.930Z,10.02
2023-02-09T18:57:54.646Z,10.10
2023-02-09T19:00:21.909Z,9.98
2023-02-09T19:02:49.151Z,10.70
2023-02-09T19:05:17.726Z,10.48
2023-02-09T19:07:45.867Z,10.30
2023-02-09T19:10:15.749Z,10.95
2023-02-09T19:12:43.874Z,10.00
2023-02-09T19:15:10.374Z,10.20
2023-02-09T19:17:36.989Z,10.50
2023-02-09T19:20:04.458Z,10.55
2023-02-09T19:22:31.732Z,10.65
2023-02-09T19:24:58.886Z,9.98
2023-02-09T19:27:27.517Z,10.73
2023-02-09T19:29:55.665Z,11.90
2023-02-09T19:32:22.733Z,10.32
2023-02-09T19:34:49.894Z,10.75
2023-02-09T19:37:18.052Z,9.43
2023-02-09T19:40:03.812Z,9.68
2023-02-09T19:42:31.674Z,11.57
2023-02-09T19:44:58.245Z,14.13
2023-02-09T19:47:27.742Z,13.40
2023-02-09T19:49:58.420Z,11.55
2023-02-09T19:52:27.108Z,10.45
2023-02-09T19:54:54.146Z,9.90
2023-02-09T19:57:21.776Z,11.15
2023-02-09T19:59:48.403Z,10.10
2023-02-09T20:02:16.773Z,9.60
2023-02-09T20:04:44.045Z,9.63
2023-02-09T20:07:10.749Z,10.15
2023-02-09T20:09:37.569Z,10.55
2023-02-09T20:12:04.377Z,9.70
2023-02-09T20:14:33.084Z,9.68
2023-02-09T20:17:00.260Z,9.52
2023-02-09T20:19:27.097Z,10.48
2023-02-09T20:21:53.608Z,9.85
2023-02-09T20:24:20.174Z,10.93
2023-02-09T20:26:46.742Z,11.68
2023-02-09T20:29:13.634Z,9.70
2023-02-09T20:31:41.551Z,9.30
2023-02-09T20:34:11.551Z,10.45
2023-02-09T20:36:41.035Z,8.88
2023-02-09T20:39:10.119Z,11.20
2023-02-09T20:41:36.844Z,12.38
2023-02-09T20:44:21.786Z,9.85
2023-02-09T20:46:57.148Z,9.95
2023-02-09T20:49:29.359Z,10.48
2023-02-09T20:51:55.962Z,10.25
2023-02-09T20:54:22.514Z,9.77
2023-02-09T20:56:49.094Z,10.15
2023-02-09T20:59:16.491Z,9.13
2023-02-09T21:01:43.283Z,10.23
2023-02-09T21:04:09.969Z,10.13
2023-02-09T21:06:37.597Z,10.35
2023-02-09T21:09:05.943Z,11.00
2023-02-09T21:11:32.562Z,10.20
2023-02-09T21:14:01.268Z,11.85
2023-02-09T21:16:28.903Z,11.73
2023-02-09T21:18:55.517Z,11.73
2023-02-09T21:21:22.358Z,11.48
2023-02-09T21:23:49.436Z,11.30
2023-02-09T21:26:19.623Z,11.32
2023-02-09T21:28:48.495Z,11.15
2023-02-09T21:31:20.979Z,13.00
2023-02-09T21:33:47.734Z,13.13
2023-02-09T21:36:14.520Z,14.48
2023-02-09T21:38:43.617Z,16.48
2023-02-09T21:41:30.641Z,17.77
2023-02-09T21:43:57.434Z,18.08
2023-02-09T21:46:24.806Z,31.15
2023-02-09T21:48:52.415Z,19.42
2023-02-09T21:51:19.352Z,16.70
2023-02-09T21:53:46.460Z,14.60
2023-02-09T21:56:13.156Z,15.05
2023-02-09T21:58:39.640Z,15.23
2023-02-09T22:01:06.138Z,15.38
2023-02-09T22:03:33.041Z,15.40
2023-02-09T22:06:01.921Z,16.02
2023-02-09T22:08:29.372Z,15.68
2023-02-09T22:11:01.662Z,14.20
2023-02-09T22:13:29.494Z,12.15
2023-02-09T22:15:56.434Z,12.07
2023-02-09T22:18:24.037Z,13.05
2023-02-09T22:20:50.904Z,12.60
2023-02-09T22:23:19.454Z,12.90
2023-02-09T22:25:46.077Z,12.73
2023-02-09T22:28:13.807Z,12.45
2023-02-09T22:30:40.453Z,11.77
2023-02-09T22:33:06.947Z,12.48
2023-02-09T22:35:33.406Z,11.95
2023-02-09T22:37:59.903Z,12.18
2023-02-09T22:40:26.439Z,11.55
2023-02-09T22:42:52.878Z,13.55
2023-02-09T22:45:19.373Z,12.43
2023-02-09T22:47:45.854Z,12.52
2023-02-09T22:50:12.386Z,12.70
2023-02-09T22:52:38.889Z,12.85
2023-02-09T22:55:05.722Z,12.93
2023-02-09T22:57:32.224Z,11.45
2023-02-09T22:59:58.709Z,12.80
2023-02-09T23:02:25.211Z,11.60
2023-02-09T23:04:51.738Z,13.15
2023-02-09T23:07:18.245Z,12.32
2023-02-09T23:09:44.750Z,13.13
2023-02-09T23:12:11.229Z,12.15
2023-02-09T23:14:37.708Z,12.68
2023-02-09T23:17:04.195Z,13.27
2023-02-09T23:19:30.708Z,13.27
2023-02-09T23:21:57.222Z,11.95
2023-02-09T23:24:26.749Z,12.02
2023-02-09T23:26:54.280Z,10.43
2023-02-09T23:29:21.710Z,14.63
2023-02-09T23:31:48.298Z,12.50
2023-02-09T23:34:17.800Z,14.63
2023-02-09T23:36:44.517Z,12.38
2023-02-09T23:39:17.478Z,11.68
2023-02-09T23:41:44.698Z,12.50
2023-02-09T23:44:11.832Z,12.48
2023-02-09T23:46:38.335Z,13.45
2023-02-09T23:49:05.080Z,13.27
2023-02-09T23:51:34.622Z,13.25
2023-02-09T23:54:03.898Z,12.35
2023-02-09T23:56:36.712Z,13.48
2023-02-09T23:59:10.033Z,13.68
